createdAt,value
2023-01-13T00:04:48.251Z,9.59
2023-01-13T00:09:50.088Z,9.61
2023-01-13T00:14:51.853Z,9.59
2023-01-13T00:19:53.794Z,9.52
2023-01-13T00:24:58.147Z,9.53
2023-01-13T00:30:00.073Z,9.75
2023-01-13T00:35:03.796Z,9.50
2023-01-13T00:40:05.844Z,9.40
2023-01-13T00:45:07.778Z,9.86
2023-01-13T00:50:09.968Z,9.77
2023-01-13T00:55:12.041Z,9.41
2023-01-13T01:00:14.635Z,9.71
2023-01-13T01:05:16.462Z,9.67
2023-01-13T01:10:18.282Z,9.45
2023-01-13T01:15:20.035Z,10.03
2023-01-13T01:20:21.988Z,9.86
2023-01-13T01:25:23.776Z,10.04
2023-01-13T01:30:25.573Z,10.00
2023-01-13T01:35:28.579Z,9.71
2023-01-13T01:40:30.374Z,9.71
2023-01-13T01:45:32.333Z,9.80
2023-01-13T01:50:34.281Z,9.68
2023-01-13T01:55:37.183Z,9.63
2023-01-13T02:00:39.371Z,9.36
2023-01-13T02:05:41.334Z,9.81
2023-01-13T02:10:45.436Z,9.72
2023-01-13T02:15:51.894Z,9.39
2023-01-13T02:21:03.369Z,9.27
2023-01-13T02:26:16.463Z,9.96
2023-01-13T02:31:37.185Z,9.72
2023-01-13T02:36:57.765Z,9.99
2023-01-13T02:42:18.590Z,10.11
2023-01-13T02:47:22.008Z,10.06
2023-01-13T02:52:33.214Z,10.35
2023-01-13T02:57:36.661Z,9.86
2023-01-13T03:02:38.766Z,10.28
2023-01-13T03:07:40.539Z,10.19
2023-01-13T03:13:00.957Z,10.01
2023-01-13T03:18:13.816Z,10.05
2023-01-13T03:23:21.712Z,10.14
2023-01-13T03:28:26.295Z,9.97
2023-01-13T03:33:54.165Z,9.79
2023-01-13T03:39:03.013Z,10.21
2023-01-13T03:44:32.948Z,10.31
2023-01-13T03:49:40.847Z,10.24
2023-01-13T03:54:50.361Z,10.00
2023-01-13T03:59:54.718Z,10.08
2023-01-13T04:05:03.515Z,10.07
2023-01-13T04:10:07.072Z,9.74
2023-01-13T04:15:09.572Z,10.10
2023-01-13T04:20:11.454Z,10.19
2023-01-13T04:25:13.456Z,10.42
2023-01-13T04:30:15.314Z,10.34
2023-01-13T04:35:17.103Z,10.62
2023-01-13T04:40:18.961Z,10.14
2023-01-13T04:45:20.789Z,10.38
2023-01-13T04:50:22.837Z,10.56
2023-01-13T04:55:25.083Z,10.35
2023-01-13T05:00:26.857Z,9.98
2023-01-13T05:05:29.086Z,10.29
2023-01-13T05:10:30.988Z,10.46
2023-01-13T05:15:51.477Z,10.53
2023-01-13T05:20:53.643Z,10.19
2023-01-13T05:25:55.953Z,10.36
2023-01-13T05:30:57.825Z,10.64
2023-01-13T05:36:01.773Z,10.37
2023-01-13T05:41:22.165Z,10.33
2023-01-13T05:46:24.030Z,10.63
2023-01-13T05:51:26.405Z,10.36
2023-01-13T05:56:28.337Z,10.56
2023-01-13T06:01:30.190Z,10.46
2023-01-13T06:06:31.965Z,10.69
2023-01-13T06:11:33.751Z,10.57
2023-01-13T06:16:35.603Z,10.68
2023-01-13T06:21:37.384Z,10.81
2023-01-13T06:26:40.855Z,10.94
2023-01-13T06:31:42.910Z,10.71
2023-01-13T06:36:47.694Z,10.51
2023-01-13T06:42:09.233Z,10.60
2023-01-13T06:47:11.016Z,10.64
2023-01-13T06:52:12.778Z,10.36
2023-01-13T06:57:14.517Z,10.64
2023-01-13T07:02:16.356Z,10.65
2023-01-13T07:07:18.596Z,10.58
2023-01-13T07:12:20.359Z,10.68
2023-01-13T07:17:25.380Z,10.77
2023-01-13T07:22:27.266Z,10.84
2023-01-13T07:27:29.353Z,11.17
2023-01-13T07:32:34.475Z,11.14
2023-01-13T07:37:37.224Z,11.43
2023-01-13T07:42:57.596Z,11.39
2023-01-13T07:47:59.359Z,11.30
2023-01-13T07:53:01.134Z,11.66
2023-01-13T07:58:03.079Z,11.64
2023-01-13T08:03:04.907Z,11.45
2023-01-13T08:08:07.066Z,11.57
2023-01-13T08:13:20.235Z,11.89
2023-01-13T08:18:22.448Z,11.88
2023-01-13T08:23:24.608Z,12.05
2023-01-13T08:28:26.659Z,12.25
2023-01-13T08:33:29.098Z,11.94
2023-01-13T08:38:31.034Z,12.11
2023-01-13T08:43:32.852Z,12.38
2023-01-13T08:48:34.651Z,12.08
2023-01-13T08:53:36.700Z,12.17
2023-01-13T08:58:38.854Z,12.17
2023-01-13T09:03:41.930Z,12.14
2023-01-13T09:08:43.756Z,12.34
2023-01-13T09:13:45.653Z,12.35
2023-01-13T09:18:47.463Z,12.57
2023-01-13T09:23:49.299Z,12.77
2023-01-13T09:28:51.284Z,12.70
2023-01-13T09:34:11.438Z,12.74
2023-01-13T09:39:13.597Z,13.07
2023-01-13T09:44:33.780Z,13.34
2023-01-13T09:49:37.828Z,12.99
2023-01-13T09:54:42.430Z,13.23
2023-01-13T09:59:46.054Z,13.06
2023-01-13T10:05:06.166Z,13.07
2023-01-13T10:10:11.263Z,13.22
2023-01-13T10:15:17.640Z,13.18
2023-01-13T10:20:19.938Z,13.21
2023-01-13T10:25:21.807Z,13.30
2023-01-13T10:30:31.461Z,13.40
2023-01-13T10:35:52.455Z,13.07
2023-01-13T10:40:58.610Z,13.15
2023-01-13T10:46:02.750Z,12.96
2023-01-13T10:51:10.569Z,12.87
2023-01-13T10:56:16.568Z,12.64
2023-01-13T11:01:21.036Z,12.95
2023-01-13T11:06:27.899Z,12.87
2023-01-13T11:11:43.505Z,13.02
2023-01-13T11:16:52.888Z,12.79
2023-01-13T11:21:55.229Z,12.69
2023-01-13T11:27:00.851Z,12.66
2023-01-13T11:32:22.445Z,12.93
2023-01-13T11:37:24.254Z,13.18
2023-01-13T11:42:28.864Z,13.23
2023-01-13T11:47:31.531Z,13.27
2023-01-13T11:52:45.485Z,13.27
2023-01-13T11:57:47.312Z,13.30
2023-01-13T12:02:57.039Z,13.44
2023-01-13T12:08:03.506Z,13.14
2023-01-13T12:13:14.658Z,13.36
2023-01-13T12:18:40.799Z,13.52
2023-01-13T12:23:51.550Z,13.08
2023-01-13T12:28:58.220Z,13.50
2023-01-13T12:34:03.025Z,13.59
2023-01-13T12:39:11.808Z,13.49
2023-01-13T12:44:20.432Z,13.71
2023-01-13T12:49:33.087Z,13.99
2023-01-13T12:54:40.952Z,13.94
2023-01-13T13:00:05.518Z,13.64
2023-01-13T13:05:25.367Z,13.64
2023-01-13T13:10:41.694Z,13.73
2023-01-13T13:15:44.217Z,13.56
2023-01-13T13:20:55.315Z,13.64
2023-01-13T13:26:03.139Z,13.76
2023-01-13T13:31:15.366Z,13.39
2023-01-13T13:36:52.860Z,13.38
2023-01-13T13:42:17.099Z,13.29
2023-01-13T13:47:18.963Z,13.65
2023-01-13T13:52:25.773Z,13.06
2023-01-13T13:57:33.679Z,13.53
2023-01-13T14:02:37.277Z,13.39
2023-01-13T14:07:43.721Z,12.96
2023-01-13T14:12:45.658Z,13.18
2023-01-13T14:17:47.436Z,13.10
2023-01-13T14:22:50.937Z,13.10
2023-01-13T14:27:53.371Z,13.24
2023-01-13T14:32:55.891Z,12.79
2023-01-13T14:38:01.784Z,13.14
2023-01-13T14:43:04.573Z,13.04
2023-01-13T14:48:08.499Z,12.71
2023-01-13T14:53:30.686Z,12.48
2023-01-13T14:58:32.488Z,12.81
2023-01-13T15:03:42.349Z,12.99
2023-01-13T15:08:44.724Z,12.65
2023-01-13T15:13:55.028Z,12.38
2023-01-13T15:18:57.895Z,12.69
2023-01-13T15:23:59.943Z,12.57
2023-01-13T15:29:03.503Z,12.33
2023-01-13T15:34:05.246Z,12.74
2023-01-13T15:39:07.373Z,12.81
2023-01-13T15:44:29.350Z,12.43
2023-01-13T15:49:35.457Z,12.97
2023-01-13T15:54:37.368Z,12.72
2023-01-13T15:59:39.227Z,12.60
2023-01-13T16:04:40.988Z,12.87
2023-01-13T16:09:43.630Z,13.19
2023-01-13T16:14:45.598Z,13.22
2023-01-13T16:19:47.529Z,12.84
2023-01-13T16:24:49.583Z,13.29
2023-01-13T16:29:52.000Z,13.39
2023-01-13T16:34:54.228Z,13.36
2023-01-13T16:39:56.277Z,13.53
2023-01-13T16:44:58.882Z,13.52
2023-01-13T16:50:00.914Z,13.65
2023-01-13T16:55:03.059Z,13.50
2023-01-13T17:00:06.528Z,13.49
2023-01-13T17:05:10.353Z,13.15
2023-01-13T17:10:16.181Z,13.11
2023-01-13T17:15:19.434Z,12.99
2023-01-13T17:20:21.230Z,12.91
2023-01-13T17:25:23.099Z,13.11
2023-01-13T17:30:25.001Z,12.64
2023-01-13T17:35:26.756Z,12.89
2023-01-13T17:40:28.745Z,13.10
2023-01-13T17:45:30.708Z,12.87
2023-01-13T17:50:34.059Z,13.12
2023-01-13T17:55:35.838Z,13.30
2023-01-13T18:00:37.729Z,13.00
2023-01-13T18:05:41.002Z,13.14
2023-01-13T18:10:42.990Z,13.18
2023-01-13T18:15:44.977Z,12.82
2023-01-13T18:21:05.419Z,12.81
2023-01-13T18:26:32.527Z,12.63
2023-01-13T18:31:34.461Z,13.07
2023-01-13T18:36:36.979Z,13.18
2023-01-13T18:41:57.493Z,12.81
2023-01-13T18:46:59.246Z,13.03
2023-01-13T18:52:01.077Z,12.81
2023-01-13T18:57:03.095Z,12.87
2023-01-13T19:02:09.396Z,13.06
2023-01-13T19:07:22.399Z,13.53
2023-01-13T19:12:26.065Z,13.20
2023-01-13T19:17:30.962Z,13.05
2023-01-13T19:22:33.838Z,13.19
2023-01-13T19:27:35.661Z,13.35
2023-01-13T19:32:37.507Z,13.34
2023-01-13T19:37:40.408Z,13.37
2023-01-13T19:43:01.664Z,13.19
2023-01-13T19:48:05.831Z,13.30
2023-01-13T19:53:14.290Z,13.22
2023-01-13T19:58:18.743Z,13.26
2023-01-13T20:03:24.233Z,13.51
2023-01-13T20:08:26.443Z,13.41
2023-01-13T20:13:32.044Z,13.60
2023-01-13T20:18:36.521Z,13.53
2023-01-13T20:23:38.382Z,13.60
2023-01-13T20:28:40.294Z,13.43
2023-01-13T20:33:43.772Z,13.52
2023-01-13T20:38:45.521Z,13.40
2023-01-13T20:43:49.027Z,13.08
2023-01-13T20:48:51.045Z,13.34
2023-01-13T20:53:52.815Z,13.00
2023-01-13T20:58:54.721Z,13.06
2023-01-13T21:03:57.147Z,13.15
2023-01-13T21:08:59.260Z,13.17
2023-01-13T21:14:19.590Z,13.04
2023-01-13T21:19:21.337Z,13.19
2023-01-13T21:24:23.509Z,13.16
2023-01-13T21:29:25.325Z,13.32
2023-01-13T21:34:27.222Z,13.01
2023-01-13T21:39:29.014Z,12.81
2023-01-13T21:44:49.523Z,13.09
2023-01-13T21:49:51.386Z,13.06
2023-01-13T21:55:11.706Z,13.03
2023-01-13T22:00:13.749Z,12.77
2023-01-13T22:05:16.880Z,13.10
2023-01-13T22:10:22.751Z,13.16
2023-01-13T22:15:29.498Z,12.88
2023-01-13T22:20:31.257Z,12.66
2023-01-13T22:25:33.035Z,12.84
2023-01-13T22:30:35.049Z,12.79
2023-01-13T22:35:38.404Z,12.63
2023-01-13T22:40:40.168Z,12.86
2023-01-13T22:45:42.053Z,12.73
2023-01-13T22:50:44.279Z,12.73
2023-01-13T22:55:59.401Z,12.41
2023-01-13T23:01:20.501Z,12.42
2023-01-13T23:06:26.954Z,12.20
2023-01-13T23:11:29.590Z,11.99
2023-01-13T23:16:32.804Z,12.00
2023-01-13T23:21:36.758Z,11.92
2023-01-13T23:26:38.608Z,12.01
2023-01-13T23:31:40.481Z,11.94
2023-01-13T23:36:43.776Z,11.81
2023-01-13T23:41:45.541Z,11.64
2023-01-13T23:46:47.515Z,11.81
2023-01-13T23:51:52.462Z,11.76
2023-01-13T23:56:54.282Z,11.73
